createdAt,value
2019-01-30T00:00:35.549Z,11.87
2019-01-30T00:02:46.528Z,12.07
2019-01-30T00:04:52.878Z,11.93
2019-01-30T00:06:59.168Z,10.77
2019-01-30T00:09:07.968Z,11.80
2019-01-30T00:11:14.031Z,10.60
2019-01-30T00:13:21.408Z,10.67
2019-01-30T00:15:28.408Z,9.43
2019-01-30T00:17:34.548Z,10.67
2019-01-30T00:19:41.168Z,9.70
2019-01-30T00:21:49.108Z,9.57
2019-01-30T00:23:55.728Z,8.70
2019-01-30T00:26:02.352Z,8.90
2019-01-30T00:28:09.808Z,9.03
2019-01-30T00:30:27.549Z,9.67
2019-01-30T00:32:35.208Z,9.47
2019-01-30T00:34:42.109Z,9.07
2019-01-30T00:36:48.729Z,37.03
2019-01-30T00:38:58.070Z,49.73
2019-01-30T00:41:04.968Z,19.43
2019-01-30T00:43:12.708Z,18.37
2019-01-30T00:45:21.168Z,15.73
2019-01-30T00:47:27.708Z,11.50
2019-01-30T00:49:33.928Z,12.50
2019-01-30T00:51:40.228Z,11.90
2019-01-30T00:53:46.808Z,16.97
2019-01-30T00:55:53.230Z,23.30
2019-01-30T00:57:59.469Z,12.93
2019-01-30T01:00:14.579Z,14.60
2019-01-30T01:02:18.108Z,11.00
2019-01-30T01:04:26.448Z,8.80
2019-01-30T01:06:33.068Z,10.77
2019-01-30T01:08:39.348Z,10.50
2019-01-30T01:10:45.870Z,22.43
2019-01-30T01:12:52.188Z,38.60
2019-01-30T01:14:58.348Z,14.90
2019-01-30T01:17:05.089Z,12.37
2019-01-30T01:19:12.688Z,11.83
2019-01-30T01:21:20.729Z,12.67
2019-01-30T01:23:27.415Z,12.03
2019-01-30T01:25:35.089Z,11.13
2019-01-30T01:27:42.131Z,12.10
2019-01-30T01:29:49.948Z,10.67
2019-01-30T01:31:57.270Z,11.27
2019-01-30T01:34:03.632Z,11.90
2019-01-30T01:36:10.388Z,10.63
2019-01-30T01:38:17.148Z,11.77
2019-01-30T01:40:23.568Z,12.37
2019-01-30T01:42:30.317Z,11.00
2019-01-30T01:44:36.648Z,11.37
2019-01-30T01:46:42.929Z,12.67
2019-01-30T01:48:49.449Z,12.00
2019-01-30T01:50:55.880Z,12.17
2019-01-30T01:53:02.168Z,11.63
2019-01-30T01:55:11.595Z,10.90
2019-01-30T01:57:18.108Z,11.23
2019-01-30T01:59:25.108Z,11.50
2019-01-30T02:01:31.456Z,10.07
2019-01-30T02:03:37.848Z,12.73
2019-01-30T02:05:44.268Z,11.83
2019-01-30T02:07:50.948Z,11.63
2019-01-30T02:09:57.868Z,12.20
2019-01-30T02:12:04.328Z,11.87
2019-01-30T02:14:10.869Z,12.97
2019-01-30T02:16:18.940Z,11.90
2019-01-30T02:18:25.676Z,12.77
2019-01-30T02:20:34.590Z,12.43
2019-01-30T02:22:41.230Z,13.27
2019-01-30T02:24:49.428Z,13.00
2019-01-30T02:26:55.872Z,12.73
2019-01-30T02:29:02.529Z,14.43
2019-01-30T02:31:11.949Z,14.07
2019-01-30T02:33:18.988Z,15.30
2019-01-30T02:35:25.509Z,13.53
2019-01-30T02:37:31.815Z,13.50
2019-01-30T02:39:38.168Z,12.00
2019-01-30T02:41:45.069Z,12.57
2019-01-30T02:43:53.171Z,12.43
2019-01-30T02:45:59.188Z,11.37
2019-01-30T02:48:05.648Z,14.80
2019-01-30T02:50:16.750Z,13.90
2019-01-30T02:52:24.029Z,12.10
2019-01-30T02:54:31.649Z,13.23
2019-01-30T02:56:38.449Z,12.80
2019-01-30T02:58:44.609Z,12.27
2019-01-30T03:01:11.334Z,12.37
2019-01-30T03:03:20.448Z,12.17
2019-01-30T03:05:26.768Z,12.20
2019-01-30T03:07:33.821Z,12.63
2019-01-30T03:09:40.390Z,12.27
2019-01-30T03:11:46.775Z,12.80
2019-01-30T03:13:53.071Z,13.87
2019-01-30T03:15:59.428Z,12.17
2019-01-30T03:18:05.608Z,12.10
2019-01-30T03:20:16.009Z,13.73
2019-01-30T03:22:22.268Z,15.67
2019-01-30T03:24:28.670Z,13.27
2019-01-30T03:26:35.828Z,14.23
2019-01-30T03:28:42.109Z,15.27
2019-01-30T03:30:50.190Z,15.53
2019-01-30T03:32:57.910Z,14.43
2019-01-30T03:35:04.689Z,12.97
2019-01-30T03:37:11.480Z,13.93
2019-01-30T03:39:19.529Z,13.70
2019-01-30T03:41:25.889Z,14.00
2019-01-30T03:43:33.400Z,12.80
2019-01-30T03:45:39.968Z,13.10
2019-01-30T03:47:47.112Z,13.13
2019-01-30T03:49:53.490Z,12.23
2019-01-30T03:52:00.368Z,13.03
2019-01-30T03:54:07.008Z,12.77
2019-01-30T03:56:13.408Z,12.13
2019-01-30T03:58:19.489Z,12.97
2019-01-30T04:00:27.548Z,12.33
2019-01-30T04:02:33.849Z,12.97
2019-01-30T04:04:40.480Z,11.27
2019-01-30T04:06:46.848Z,11.33
2019-01-30T04:08:53.208Z,11.03
2019-01-30T04:11:02.588Z,12.47
2019-01-30T04:13:09.208Z,13.13
2019-01-30T04:15:17.193Z,13.13
2019-01-30T04:17:23.557Z,12.30
2019-01-30T04:19:30.388Z,13.03
2019-01-30T04:21:37.149Z,13.03
2019-01-30T04:23:43.668Z,13.73
2019-01-30T04:25:49.828Z,13.60
2019-01-30T04:27:56.088Z,13.43
2019-01-30T04:30:03.670Z,13.93
2019-01-30T04:32:11.208Z,12.70
2019-01-30T04:34:17.550Z,16.00
2019-01-30T04:36:25.188Z,18.63
2019-01-30T04:38:35.189Z,18.23
2019-01-30T04:40:41.868Z,19.43
2019-01-30T04:42:48.434Z,19.20
2019-01-30T04:44:54.690Z,20.37
2019-01-30T04:47:01.948Z,22.97
2019-01-30T04:49:09.556Z,23.57
2019-01-30T04:51:16.691Z,24.00
2019-01-30T04:53:23.015Z,24.40
2019-01-30T04:55:29.331Z,20.43
2019-01-30T04:57:35.929Z,19.57
2019-01-30T04:59:43.794Z,17.50
2019-01-30T05:01:50.304Z,19.20
2019-01-30T05:03:56.508Z,17.50
2019-01-30T05:06:04.533Z,17.10
2019-01-30T05:08:10.808Z,17.23
2019-01-30T05:10:17.589Z,16.33
2019-01-30T05:12:25.711Z,15.80
2019-01-30T05:14:32.048Z,16.53
2019-01-30T05:16:39.630Z,16.50
2019-01-30T05:18:47.329Z,17.03
2019-01-30T05:20:53.851Z,16.13
2019-01-30T05:23:00.150Z,16.50
2019-01-30T05:25:09.169Z,17.47
2019-01-30T05:27:18.259Z,20.13
2019-01-30T05:29:24.568Z,17.13
2019-01-30T05:31:30.830Z,18.17
2019-01-30T05:33:37.474Z,18.50
2019-01-30T05:35:43.688Z,18.13
2019-01-30T05:37:51.430Z,17.90
2019-01-30T05:39:58.149Z,18.37
2019-01-30T05:42:04.387Z,18.67
2019-01-30T05:44:10.648Z,17.13
2019-01-30T05:46:16.812Z,16.97
2019-01-30T05:48:23.071Z,18.83
2019-01-30T05:50:29.376Z,16.37
2019-01-30T05:52:35.888Z,18.83
2019-01-30T05:54:42.691Z,17.33
2019-01-30T05:56:49.128Z,17.10
2019-01-30T05:58:55.808Z,19.80
2019-01-30T06:01:04.211Z,20.60
2019-01-30T06:03:11.376Z,22.47
2019-01-30T06:05:23.048Z,22.47
2019-01-30T06:07:31.848Z,22.53
2019-01-30T06:09:38.528Z,20.83
2019-01-30T06:11:44.713Z,20.27
2019-01-30T06:13:51.609Z,21.87
2019-01-30T06:15:58.048Z,20.00
2019-01-30T06:18:04.779Z,21.33
2019-01-30T06:20:18.372Z,20.40
2019-01-30T06:22:24.869Z,17.97
2019-01-30T06:24:31.169Z,19.63
2019-01-30T06:26:37.488Z,17.87
2019-01-30T06:28:44.688Z,17.27
2019-01-30T06:30:52.628Z,23.00
2019-01-30T06:33:00.568Z,19.77
2019-01-30T06:37:41.850Z,19.77
2019-01-30T06:39:48.308Z,16.77
2019-01-30T06:41:54.728Z,16.03
2019-01-30T06:44:01.179Z,14.90
2019-01-30T06:46:08.008Z,29.33
2019-01-30T06:48:14.768Z,20.53
2019-01-30T06:50:21.268Z,20.37
2019-01-30T06:52:27.768Z,21.03
2019-01-30T06:54:34.205Z,24.07
2019-01-30T06:56:40.728Z,24.87
2019-01-30T06:58:47.607Z,25.27
2019-01-30T07:00:53.888Z,20.70
2019-01-30T07:03:01.128Z,20.77
2019-01-30T07:05:08.237Z,21.73
2019-01-30T07:07:14.712Z,23.67
2019-01-30T07:09:21.149Z,21.93
2019-01-30T07:11:27.769Z,24.67
2019-01-30T07:13:34.408Z,25.37
2019-01-30T07:15:40.827Z,21.43
2019-01-30T07:17:47.169Z,20.90
2019-01-30T07:25:11.511Z,20.50
2019-01-30T07:27:18.530Z,20.90
2019-01-30T07:29:24.689Z,21.47
2019-01-30T07:31:31.569Z,23.83
2019-01-30T07:33:38.588Z,24.30
2019-01-30T07:35:45.609Z,23.50
2019-01-30T07:37:52.249Z,23.07
2019-01-30T07:39:58.648Z,24.30
2019-01-30T07:42:05.231Z,24.13
2019-01-30T07:44:11.369Z,23.93
2019-01-30T07:46:17.649Z,21.97
2019-01-30T07:48:27.179Z,22.80
2019-01-30T07:50:31.973Z,19.70
2019-01-30T07:52:38.449Z,20.20
2019-01-30T07:54:45.709Z,19.00
2019-01-30T07:56:51.911Z,18.83
2019-01-30T07:58:57.994Z,18.90
2019-01-30T08:01:04.568Z,21.80
2019-01-30T08:03:11.309Z,21.67
2019-01-30T08:05:18.433Z,19.10
2019-01-30T08:07:27.761Z,51.83
2019-01-30T08:09:35.148Z,23.40
2019-01-30T08:11:43.089Z,26.97
2019-01-30T08:13:49.712Z,24.57
2019-01-30T08:15:56.208Z,26.53
2019-01-30T08:18:02.644Z,25.00
2019-01-30T08:20:13.169Z,25.17
2019-01-30T08:22:19.827Z,23.87
2019-01-30T08:24:28.187Z,21.73
2019-01-30T08:26:34.896Z,22.03
2019-01-30T08:28:41.533Z,21.57
2019-01-30T08:30:49.761Z,20.67
2019-01-30T08:33:04.051Z,20.27
2019-01-30T08:35:06.229Z,19.73
2019-01-30T08:37:13.887Z,20.70
2019-01-30T08:39:21.509Z,20.47
2019-01-30T08:41:27.918Z,21.27
2019-01-30T08:43:37.017Z,23.73
2019-01-30T08:45:43.828Z,30.40
2019-01-30T08:47:52.048Z,28.00
2019-01-30T08:49:59.449Z,29.67
2019-01-30T08:52:06.409Z,23.30
2019-01-30T08:54:13.429Z,26.10
2019-01-30T08:56:19.970Z,21.83
2019-01-30T08:58:26.249Z,23.47
2019-01-30T09:00:32.511Z,21.47
2019-01-30T09:02:38.889Z,26.97
2019-01-30T09:04:46.793Z,19.33
2019-01-30T09:06:53.528Z,24.27
2019-01-30T09:09:00.828Z,23.87
2019-01-30T09:11:09.271Z,27.07
2019-01-30T09:13:15.811Z,29.37
2019-01-30T09:15:24.849Z,34.67
2019-01-30T09:17:31.508Z,20.50
2019-01-30T09:19:37.808Z,20.40
2019-01-30T09:21:45.170Z,20.70
2019-01-30T09:23:51.549Z,24.17
2019-01-30T09:25:58.036Z,15.37
2019-01-30T09:28:05.530Z,15.87
2019-01-30T09:30:25.230Z,18.50
2019-01-30T09:32:33.452Z,20.53
2019-01-30T09:34:39.901Z,17.40
2019-01-30T09:36:46.269Z,16.27
2019-01-30T09:38:52.875Z,17.03
2019-01-30T09:40:59.133Z,17.67
2019-01-30T09:43:05.652Z,15.60
2019-01-30T09:45:17.382Z,15.93
2019-01-30T09:47:23.649Z,17.10
2019-01-30T09:49:30.109Z,17.47
2019-01-30T09:51:36.716Z,20.40
2019-01-30T09:53:43.528Z,19.53
2019-01-30T09:55:49.948Z,26.10
2019-01-30T09:57:57.989Z,27.47
2019-01-30T10:00:06.349Z,25.80
2019-01-30T10:02:12.648Z,29.07
2019-01-30T10:04:19.575Z,24.47
2019-01-30T10:06:27.448Z,21.10
2019-01-30T10:08:34.110Z,16.90
2019-01-30T10:10:44.172Z,16.47
2019-01-30T10:12:50.389Z,14.83
2019-01-30T10:14:57.299Z,15.30
2019-01-30T10:17:03.812Z,16.53
2019-01-30T10:19:10.512Z,13.70
2019-01-30T10:21:17.089Z,14.90
2019-01-30T10:23:23.797Z,13.60
2019-01-30T10:25:30.248Z,14.07
2019-01-30T10:27:36.848Z,14.20
2019-01-30T10:29:43.168Z,11.40
2019-01-30T10:31:52.168Z,17.50
2019-01-30T10:33:58.689Z,14.73
2019-01-30T10:36:05.488Z,16.10
2019-01-30T10:38:11.608Z,14.00
2019-01-30T10:40:24.808Z,17.40
2019-01-30T10:42:32.850Z,15.03
2019-01-30T10:44:39.075Z,12.57
2019-01-30T10:46:47.088Z,13.50
2019-01-30T10:48:53.629Z,13.20
2019-01-30T10:51:00.009Z,10.80
2019-01-30T10:53:08.116Z,9.50
2019-01-30T10:55:21.728Z,8.60
2019-01-30T10:57:30.851Z,9.20
2019-01-30T10:59:38.451Z,8.67
2019-01-30T11:01:45.788Z,8.27
2019-01-30T11:03:57.350Z,8.83
2019-01-30T11:06:04.068Z,9.30
2019-01-30T11:08:10.569Z,9.27
2019-01-30T11:10:21.532Z,10.73
2019-01-30T11:12:27.969Z,10.40
2019-01-30T11:14:34.508Z,8.93
2019-01-30T11:16:40.791Z,8.43
2019-01-30T11:18:48.908Z,6.70
2019-01-30T11:20:55.149Z,10.23
2019-01-30T11:23:01.348Z,7.83
2019-01-30T11:25:12.668Z,9.77
2019-01-30T11:27:19.548Z,9.30
2019-01-30T11:29:25.867Z,11.03
2019-01-30T11:31:32.769Z,8.83
2019-01-30T11:33:38.808Z,15.60
2019-01-30T11:35:45.887Z,15.57
2019-01-30T11:37:52.249Z,14.93
2019-01-30T11:39:58.552Z,11.10
2019-01-30T11:42:05.810Z,12.40
2019-01-30T11:44:13.048Z,11.20
2019-01-30T11:46:19.469Z,11.03
2019-01-30T11:48:25.916Z,9.90
2019-01-30T11:50:33.116Z,11.07
2019-01-30T11:52:39.329Z,17.70
2019-01-30T11:54:46.868Z,14.93
2019-01-30T11:56:53.388Z,12.13
2019-01-30T11:59:06.024Z,15.73
2019-01-30T12:01:13.888Z,11.13
2019-01-30T12:03:21.831Z,15.17
2019-01-30T12:05:29.149Z,12.60
2019-01-30T12:07:35.349Z,12.67
2019-01-30T12:09:43.009Z,12.07
2019-01-30T12:11:49.588Z,11.17
2019-01-30T12:13:55.855Z,12.03
2019-01-30T12:16:03.514Z,12.67
2019-01-30T12:18:10.349Z,11.63
2019-01-30T12:20:17.256Z,11.50
2019-01-30T12:22:26.169Z,13.87
2019-01-30T12:24:32.888Z,14.20
2019-01-30T12:26:39.680Z,11.53
2019-01-30T12:28:45.948Z,10.87
2019-01-30T12:30:52.349Z,12.23
2019-01-30T12:32:58.687Z,14.13
2019-01-30T12:35:06.652Z,13.37
2019-01-30T12:37:14.064Z,14.07
2019-01-30T12:39:20.149Z,11.83
2019-01-30T12:41:26.347Z,13.37
2019-01-30T12:43:32.596Z,18.40
2019-01-30T12:45:40.535Z,14.20
2019-01-30T12:47:47.212Z,15.10
2019-01-30T12:49:53.608Z,14.47
2019-01-30T12:52:00.076Z,16.30
2019-01-30T12:54:06.507Z,14.87
2019-01-30T12:56:13.149Z,18.93
2019-01-30T12:58:21.339Z,18.43
2019-01-30T13:00:40.450Z,15.50
2019-01-30T13:02:47.627Z,17.67
2019-01-30T13:04:55.216Z,20.57
2019-01-30T13:07:01.849Z,15.03
2019-01-30T13:09:09.388Z,15.70
2019-01-30T13:11:15.728Z,17.97
2019-01-30T13:13:22.067Z,16.87
2019-01-30T13:15:29.873Z,19.13
2019-01-30T13:17:36.650Z,16.67
2019-01-30T13:19:42.868Z,19.37
2019-01-30T13:21:50.026Z,18.50
2019-01-30T13:23:56.388Z,18.90
2019-01-30T13:26:04.491Z,17.57
2019-01-30T13:28:10.888Z,13.70
2019-01-30T13:30:30.348Z,16.90
2019-01-30T13:32:37.112Z,17.47
2019-01-30T13:34:48.985Z,16.80
2019-01-30T13:36:51.752Z,18.67
2019-01-30T13:38:58.583Z,15.60
2019-01-30T13:41:06.468Z,14.20
2019-01-30T13:43:12.670Z,16.70
2019-01-30T13:45:20.248Z,16.10
2019-01-30T13:47:28.088Z,17.00
2019-01-30T13:49:34.511Z,15.63
2019-01-30T13:51:40.729Z,17.07
2019-01-30T13:53:48.841Z,16.83
2019-01-30T13:55:56.540Z,17.50
2019-01-30T13:58:05.375Z,18.50
2019-01-30T14:00:33.329Z,18.77
2019-01-30T14:02:40.145Z,19.37
2019-01-30T14:04:47.391Z,18.07
2019-01-30T14:06:56.568Z,18.67
2019-01-30T14:09:03.167Z,19.90
2019-01-30T14:11:12.298Z,18.43
2019-01-30T14:13:20.348Z,18.13
2019-01-30T14:15:29.968Z,21.37
2019-01-30T14:17:36.444Z,21.57
2019-01-30T14:19:42.984Z,20.43
2019-01-30T14:21:49.215Z,19.57
2019-01-30T14:23:57.171Z,20.63
2019-01-30T14:26:03.630Z,20.43
2019-01-30T14:28:10.228Z,20.73
2019-01-30T14:30:33.727Z,20.43
2019-01-30T14:32:40.249Z,21.13
2019-01-30T14:34:47.043Z,21.20
2019-01-30T14:36:53.728Z,21.33
2019-01-30T14:39:00.242Z,19.90
2019-01-30T14:41:08.567Z,20.63
2019-01-30T14:43:17.635Z,23.27
2019-01-30T14:45:24.655Z,24.87
2019-01-30T14:47:31.323Z,23.53
2019-01-30T14:49:37.773Z,25.40
2019-01-30T14:51:46.777Z,23.27
2019-01-30T14:53:59.615Z,24.97
2019-01-30T14:56:09.335Z,29.87
2019-01-30T14:58:19.383Z,26.90
2019-01-30T15:00:31.147Z,25.53
2019-01-30T15:02:39.003Z,23.53
2019-01-30T15:04:45.368Z,24.50
2019-01-30T15:06:53.651Z,26.40
2019-01-30T15:09:01.250Z,25.17
2019-01-30T15:11:07.859Z,27.33
2019-01-30T15:13:14.251Z,24.13
2019-01-30T15:15:26.131Z,24.27
2019-01-30T15:17:32.593Z,24.47
2019-01-30T15:19:39.273Z,25.13
2019-01-30T15:21:47.521Z,26.13
2019-01-30T15:23:54.509Z,25.50
2019-01-30T15:26:00.768Z,24.83
2019-01-30T15:28:08.668Z,26.30
2019-01-30T15:30:29.189Z,28.23
2019-01-30T15:32:36.111Z,28.97
2019-01-30T15:34:42.249Z,29.17
2019-01-30T15:36:48.388Z,31.67
2019-01-30T15:38:55.248Z,31.83
2019-01-30T15:41:02.017Z,33.03
2019-01-30T15:43:08.609Z,41.53
2019-01-30T15:45:18.884Z,38.27
2019-01-30T15:47:25.577Z,33.87
2019-01-30T15:49:32.390Z,34.13
2019-01-30T15:51:39.888Z,36.47
2019-01-30T15:53:46.415Z,34.07
2019-01-30T15:55:52.871Z,34.57
2019-01-30T15:58:06.851Z,38.70
2019-01-30T16:00:35.928Z,37.53
2019-01-30T16:02:42.758Z,35.87
2019-01-30T16:04:51.332Z,34.47
2019-01-30T16:06:58.001Z,30.50
2019-01-30T16:09:06.328Z,29.37
2019-01-30T16:11:12.976Z,33.70
2019-01-30T16:13:19.848Z,32.40
2019-01-30T16:15:42.469Z,34.33
2019-01-30T16:17:48.949Z,34.60
2019-01-30T16:19:55.851Z,34.93
2019-01-30T16:22:03.461Z,33.50
2019-01-30T16:24:09.908Z,30.87
2019-01-30T16:26:17.948Z,29.07
2019-01-30T16:28:24.570Z,27.03
2019-01-30T16:30:31.376Z,30.33
2019-01-30T16:32:39.688Z,31.70
2019-01-30T16:34:47.369Z,29.97
2019-01-30T16:36:54.068Z,31.07
2019-01-30T16:39:01.096Z,29.27
2019-01-30T16:41:08.908Z,28.73
2019-01-30T16:43:16.988Z,33.07
2019-01-30T16:45:30.134Z,30.03
2019-01-30T16:47:36.729Z,31.90
2019-01-30T16:49:43.469Z,29.70
2019-01-30T16:51:50.129Z,30.47
2019-01-30T16:53:56.728Z,30.53
2019-01-30T16:56:02.988Z,30.07
2019-01-30T16:58:09.757Z,34.93
2019-01-30T17:00:20.409Z,28.83
2019-01-30T17:02:27.290Z,35.10
2019-01-30T17:04:33.956Z,31.00
2019-01-30T17:06:43.699Z,31.73
2019-01-30T17:08:50.869Z,31.90
2019-01-30T17:10:57.357Z,30.43
2019-01-30T17:13:04.329Z,32.97
2019-01-30T17:15:15.468Z,31.00
2019-01-30T17:17:22.308Z,35.50
2019-01-30T17:19:29.049Z,27.00
2019-01-30T17:21:36.288Z,32.50
2019-01-30T17:23:43.428Z,36.17
2019-01-30T17:25:49.968Z,33.17
2019-01-30T17:27:56.650Z,31.97
2019-01-30T17:30:03.377Z,32.30
2019-01-30T17:32:10.073Z,32.07
2019-01-30T17:34:17.167Z,34.10
2019-01-30T17:36:23.849Z,31.40
2019-01-30T17:38:30.579Z,34.20
2019-01-30T17:40:37.356Z,34.20
2019-01-30T17:42:44.108Z,36.40
2019-01-30T17:44:51.248Z,34.53
2019-01-30T17:46:57.935Z,34.50
2019-01-30T17:49:04.768Z,34.53
2019-01-30T17:51:11.428Z,33.97
2019-01-30T17:53:18.171Z,38.53
2019-01-30T17:55:26.217Z,36.90
2019-01-30T17:57:33.268Z,33.33
2019-01-30T17:59:40.068Z,35.73
2019-01-30T18:01:46.816Z,34.53
2019-01-30T18:03:53.508Z,38.77
2019-01-30T18:06:00.169Z,34.73
2019-01-30T18:08:07.068Z,47.83
2019-01-30T18:10:17.747Z,39.73
2019-01-30T18:12:24.209Z,41.90
2019-01-30T18:14:32.296Z,37.13
2019-01-30T18:16:39.068Z,39.17
2019-01-30T18:18:45.948Z,51.03
2019-01-30T18:20:52.829Z,75.67
2019-01-30T18:23:01.588Z,59.63
2019-01-30T18:25:13.308Z,45.43
2019-01-30T18:27:19.948Z,55.27
2019-01-30T18:29:26.928Z,41.60
2019-01-30T18:31:34.869Z,42.17
2019-01-30T18:33:42.089Z,39.67
2019-01-30T18:35:49.348Z,38.57
2019-01-30T18:37:56.468Z,34.20
2019-01-30T18:40:03.759Z,37.77
2019-01-30T18:42:10.436Z,39.77
2019-01-30T18:44:19.390Z,38.23
2019-01-30T18:46:29.089Z,33.77
2019-01-30T18:48:36.209Z,38.00
2019-01-30T18:50:45.672Z,36.97
2019-01-30T18:52:51.828Z,39.93
2019-01-30T18:54:59.169Z,38.67
2019-01-30T18:57:06.048Z,37.97
2019-01-30T18:59:12.929Z,35.57
2019-01-30T19:01:19.857Z,37.13
2019-01-30T19:03:29.472Z,37.87
2019-01-30T19:05:36.991Z,37.50
2019-01-30T19:07:44.405Z,40.27
2019-01-30T19:09:50.880Z,39.17
2019-01-30T19:11:57.988Z,40.17
2019-01-30T19:14:04.668Z,41.13
2019-01-30T19:16:11.154Z,42.80
2019-01-30T19:18:20.148Z,58.90
2019-01-30T19:20:43.048Z,47.00
2019-01-30T19:22:50.374Z,91.40
2019-01-30T19:24:57.135Z,65.77
2019-01-30T19:27:03.893Z,47.67
2019-01-30T19:29:11.033Z,57.93
2019-01-30T19:31:17.892Z,54.73
2019-01-30T19:33:25.840Z,41.60
2019-01-30T19:35:32.620Z,44.40
2019-01-30T19:37:39.659Z,47.80
2019-01-30T19:39:46.813Z,50.27
2019-01-30T19:41:53.545Z,45.07
2019-01-30T19:44:00.654Z,40.57
2019-01-30T19:46:07.832Z,37.23
2019-01-30T19:48:15.373Z,39.70
2019-01-30T19:50:28.052Z,39.00
2019-01-30T19:52:35.032Z,37.17
2019-01-30T19:54:41.773Z,35.13
2019-01-30T19:56:49.072Z,37.83
2019-01-30T19:58:56.212Z,36.43
2019-01-30T20:01:03.633Z,37.83
2019-01-30T20:03:15.613Z,32.93
2019-01-30T20:05:22.388Z,35.83
2019-01-30T20:07:29.248Z,37.73
2019-01-30T20:09:35.868Z,37.00
2019-01-30T20:11:43.528Z,38.63
2019-01-30T20:13:50.171Z,32.87
2019-01-30T20:15:57.107Z,41.20
2019-01-30T20:18:04.011Z,36.67
2019-01-30T20:20:21.333Z,40.00
2019-01-30T20:22:29.368Z,38.00
2019-01-30T20:24:37.280Z,40.20
2019-01-30T20:26:44.477Z,39.30
2019-01-30T20:28:51.392Z,38.00
2019-01-30T20:31:01.113Z,43.23
2019-01-30T20:33:07.037Z,42.43
2019-01-30T20:35:13.870Z,45.90
2019-01-30T20:37:26.365Z,43.20
2019-01-30T20:39:29.068Z,42.83
2019-01-30T20:41:35.798Z,42.27
2019-01-30T20:43:44.267Z,41.13
2019-01-30T20:45:51.109Z,40.63
2019-01-30T20:47:58.188Z,40.70
2019-01-30T20:50:08.010Z,39.90
2019-01-30T20:52:14.772Z,39.10
2019-01-30T20:54:22.473Z,39.50
2019-01-30T20:56:28.991Z,43.90
2019-01-30T20:58:35.828Z,43.07
2019-01-30T21:00:42.731Z,45.07
2019-01-30T21:02:49.610Z,43.57
2019-01-30T21:04:57.209Z,39.47
2019-01-30T21:07:03.989Z,38.53
2019-01-30T21:09:10.729Z,39.27
2019-01-30T21:11:18.728Z,36.23
2019-01-30T21:13:25.388Z,41.90
2019-01-30T21:15:32.828Z,39.57
2019-01-30T21:17:39.629Z,39.60
2019-01-30T21:19:46.517Z,37.57
2019-01-30T21:21:53.350Z,38.63
2019-01-30T21:24:00.023Z,40.07
2019-01-30T21:26:06.969Z,39.07
2019-01-30T21:28:13.588Z,38.83
2019-01-30T21:30:28.057Z,35.80
2019-01-30T21:32:34.988Z,38.00
2019-01-30T21:34:41.489Z,38.27
2019-01-30T21:36:48.291Z,37.47
2019-01-30T21:38:54.957Z,39.03
2019-01-30T21:41:01.611Z,38.53
2019-01-30T21:43:09.534Z,37.03
2019-01-30T21:45:25.525Z,38.30
2019-01-30T21:47:32.670Z,38.07
2019-01-30T21:49:39.288Z,41.23
2019-01-30T21:51:45.749Z,40.57
2019-01-30T21:53:52.389Z,39.80
2019-01-30T21:55:58.627Z,37.73
2019-01-30T21:58:05.435Z,39.70
2019-01-30T22:00:25.089Z,38.77
2019-01-30T22:02:31.469Z,36.63
2019-01-30T22:04:39.934Z,42.90
2019-01-30T22:06:47.228Z,40.80
2019-01-30T22:08:53.755Z,41.77
2019-01-30T22:11:00.337Z,39.67
2019-01-30T22:13:06.667Z,38.67
2019-01-30T22:15:16.330Z,35.97
2019-01-30T22:17:23.508Z,34.53
2019-01-30T22:19:30.009Z,37.00
2019-01-30T22:21:36.308Z,34.60
2019-01-30T22:23:43.214Z,37.87
2019-01-30T22:25:50.968Z,37.33
2019-01-30T22:27:58.237Z,38.53
2019-01-30T22:30:06.877Z,42.93
2019-01-30T22:32:13.308Z,36.73
2019-01-30T22:34:19.809Z,36.00
2019-01-30T22:36:26.169Z,37.50
2019-01-30T22:38:32.469Z,35.80
2019-01-30T22:40:39.568Z,36.87
2019-01-30T22:42:46.089Z,38.70
2019-01-30T22:44:54.428Z,32.13
2019-01-30T22:47:01.091Z,36.67
2019-01-30T22:49:07.448Z,36.17
2019-01-30T22:51:14.308Z,36.83
2019-01-30T22:53:22.588Z,38.47
2019-01-30T22:55:29.051Z,32.07
2019-01-30T22:57:36.148Z,34.77
2019-01-30T22:59:42.408Z,33.43
2019-01-30T23:01:50.048Z,34.63
2019-01-30T23:04:15.692Z,36.97
2019-01-30T23:06:36.008Z,34.30
2019-01-30T23:08:53.988Z,38.73
2019-01-30T23:11:19.909Z,34.00
2019-01-30T23:13:33.768Z,35.40
2019-01-30T23:16:00.708Z,34.37
2019-01-30T23:18:38.421Z,32.77
2019-01-30T23:20:55.488Z,37.20
2019-01-30T23:23:35.328Z,33.57
2019-01-30T23:26:09.909Z,32.77
2019-01-30T23:28:27.668Z,35.73
2019-01-30T23:30:47.468Z,32.40
2019-01-30T23:33:17.147Z,35.07
2019-01-30T23:35:40.328Z,33.57
2019-01-30T23:37:52.803Z,30.40
2019-01-30T23:40:24.767Z,31.63
2019-01-30T23:43:02.564Z,33.83
2019-01-30T23:45:35.290Z,33.63
2019-01-30T23:47:58.063Z,33.00
2019-01-30T23:50:32.888Z,34.07
2019-01-30T23:53:01.748Z,32.47
2019-01-30T23:55:12.629Z,31.37
2019-01-30T23:57:45.892Z,31.17
